Time,TemperatureF,DewpointF,PressureIn,WindDirection,WindDirectionDegrees,WindSpeedMPH,WindSpeedGustMPH,Humidity,HourlyPrecipIn,Conditions,Clouds,dailyrainin,SoftwareType,DateUTC
2013-06-16 00:01:00,54.9,45.7,29.96,WNW,294,5.0,7.0,71,0.00,,---,0.00,VWS V14.01,2013-06-16 04:01:00,
2013-06-16 00:02:00,54.9,45.7,29.96,WNW,293,4.0,7.0,71,0.00,,---,0.00,VWS V14.01,2013-06-16 04:02:00,
2013-06-16 00:04:00,54.9,45.7,29.95,WNW,291,4.0,7.0,71,0.00,,---,0.00,VWS V14.01,2013-06-16 04:04:00,
2013-06-16 00:06:00,55.0,45.8,29.95,WNW,288,6.0,6.0,71,0.00,,---,0.00,VWS V14.01,2013-06-16 04:06:00,
2013-06-16 00:08:00,55.0,45.8,29.95,WNW,288,5.0,6.0,71,0.00,,---,0.00,VWS V14.01,2013-06-16 04:08:00,
2013-06-16 00:13:00,55.4,45.8,29.95,NW,305,5.0,8.0,70,0.00,,---,0.00,VWS V14.01,2013-06-16 04:13:00,
2013-06-16 00:15:00,55.4,45.8,29.95,WNW,287,4.0,8.0,70,0.00,,---,0.00,VWS V14.01,2013-06-16 04:15:00,
2013-06-16 00:20:00,55.4,45.4,29.94,WNW,293,4.0,5.0,69,0.00,,---,0.00,VWS V14.01,2013-06-16 04:20:00,
2013-06-16 00:25:00,55.3,45.7,29.95,WNW,282,4.0,6.0,70,0.00,,---,0.00,VWS V14.01,2013-06-16 04:25:00,
2013-06-16 00:30:00,55.1,45.5,29.95,WNW,283,2.0,6.0,70,0.00,,---,0.00,VWS V14.01,2013-06-16 04:30:00,
2013-06-16 00:35:00,54.9,45.7,29.95,WNW,290,3.0,5.0,71,0.00,,---,0.00,VWS V14.01,2013-06-16 04:35:00,
2013-06-16 00:40:00,54.5,45.7,29.95,WNW,283,3.0,4.0,72,0.00,,---,0.00,VWS V14.01,2013-06-16 04:40:00,
2013-06-16 00:45:00,54.2,46.1,29.95,WNW,291,3.0,5.0,74,0.00,,---,0.00,VWS V14.01,2013-06-16 04:45:00,
2013-06-16 00:50:00,53.8,46.1,29.94,WNW,288,3.0,4.0,75,0.00,,---,0.00,VWS V14.01,2013-06-16 04:50:00,
2013-06-16 00:55:00,53.6,46.2,29.94,WNW,302,3.0,4.0,76,0.00,,---,0.00,VWS V14.01,2013-06-16 04:55:00,
2013-06-16 01:00:00,53.2,46.2,29.94,WNW,288,2.0,3.0,77,0.00,,---,0.00,VWS V14.01,2013-06-16 05:00:00,
2013-06-16 01:05:00,52.8,46.5,29.94,WNW,288,2.0,3.0,79,0.00,,---,0.00,VWS V14.01,2013-06-16 05:05:00,
2013-06-16 01:10:00,52.5,45.8,29.95,WNW,291,2.0,3.0,78,0.00,,---,0.00,VWS V14.01,2013-06-16 05:10:00,
2013-06-16 01:15:00,52.5,45.8,29.95,WNW,295,3.0,4.0,78,0.00,,---,0.00,VWS V14.01,2013-06-16 05:15:00,
2013-06-16 01:20:00,52.6,46.0,29.95,West,278,3.0,4.0,78,0.00,,---,0.00,VWS V14.01,2013-06-16 05:20:00,
2013-06-16 01:25:00,52.7,46.0,29.95,WNW,286,1.0,4.0,78,0.00,,---,0.00,VWS V14.01,2013-06-16 05:25:00,
2013-06-16 01:30:00,52.8,46.1,29.95,WNW,296,1.0,3.0,78,0.00,,---,0.00,VWS V14.01,2013-06-16 05:30:00,
2013-06-16 01:36:00,52.4,46.1,29.95,WNW,294,1.0,2.0,79,0.00,,---,0.00,VWS V14.01,2013-06-16 05:36:00,
2013-06-16 01:41:00,52.5,46.2,29.95,WNW,300,1.0,2.0,79,0.00,,---,0.00,VWS V14.01,2013-06-16 05:41:00,
2013-06-16 01:46:00,52.4,46.1,29.95,WNW,300,1.0,2.0,79,0.00,,---,0.00,VWS V14.01,2013-06-16 05:46:00,
2013-06-16 01:51:00,52.4,46.1,29.95,WNW,294,1.0,1.0,79,0.00,,---,0.00,VWS V14.01,2013-06-16 05:51:00,
2013-06-16 01:56:00,52.1,46.1,29.95,WNW,293,1.0,2.0,80,0.00,,---,0.00,VWS V14.01,2013-06-16 05:56:00,
2013-06-16 02:01:00,52.4,46.4,29.95,WNW,295,1.0,2.0,80,0.00,,---,0.00,VWS V14.01,2013-06-16 06:01:00,
2013-06-16 02:06:00,52.7,46.4,29.95,WNW,291,1.0,1.0,79,0.00,,---,0.00,VWS V14.01,2013-06-16 06:06:00,
2013-06-16 02:11:00,52.0,46.4,29.95,WNW,291,1.0,1.0,81,0.00,,---,0.00,VWS V14.01,2013-06-16 06:11:00,
2013-06-16 02:16:00,50.9,46.2,29.95,WNW,298,1.0,2.0,84,0.00,,---,0.00,VWS V14.01,2013-06-16 06:16:00,
2013-06-16 02:22:00,50.7,46.4,29.95,WNW,290,2.0,2.0,85,0.00,,---,0.00,VWS V14.01,2013-06-16 06:22:00,
2013-06-16 02:27:00,51.6,46.3,29.95,WNW,293,1.0,2.0,82,0.00,,---,0.00,VWS V14.01,2013-06-16 06:27:00,
2013-06-16 02:32:00,52.2,46.5,29.95,WNW,291,1.0,2.0,81,0.00,,---,0.00,VWS V14.01,2013-06-16 06:32:00,
2013-06-16 02:37:00,52.0,46.4,29.95,WNW,291,1.0,4.0,81,0.00,,---,0.00,VWS V14.01,2013-06-16 06:37:00,
2013-06-16 02:42:00,52.4,46.4,29.95,WNW,283,2.0,3.0,80,0.00,,---,0.00,VWS V14.01,2013-06-16 06:42:00,
2013-06-16 02:47:00,53.0,46.3,29.95,West,276,2.0,4.0,78,0.00,,---,0.00,VWS V14.01,2013-06-16 06:47:00,
2013-06-16 02:52:00,53.6,46.6,29.95,WNW,285,1.0,3.0,77,0.00,,---,0.00,VWS V14.01,2013-06-16 06:52:00,
2013-06-16 02:57:00,53.8,46.4,29.94,WNW,288,0.0,1.0,76,0.00,,---,0.00,VWS V14.01,2013-06-16 06:57:00,
2013-06-16 03:02:00,53.8,46.4,29.94,West,273,0.0,1.0,76,0.00,,---,0.00,VWS V14.01,2013-06-16 07:02:00,
2013-06-16 03:07:00,53.4,46.4,29.94,West,272,0.0,1.0,77,0.00,,---,0.00,VWS V14.01,2013-06-16 07:07:00,
2013-06-16 03:12:00,53.0,46.3,29.94,West,274,1.0,1.0,78,0.00,,---,0.00,VWS V14.01,2013-06-16 07:12:00,
2013-06-16 03:17:00,52.8,46.5,29.94,WNW,292,1.0,2.0,79,0.00,,---,0.00,VWS V14.01,2013-06-16 07:17:00,
2013-06-16 03:22:00,52.9,46.2,29.94,WNW,292,1.0,2.0,78,0.00,,---,0.00,VWS V14.01,2013-06-16 07:22:00,
2013-06-16 03:27:00,53.0,46.3,29.94,WNW,293,1.0,1.0,78,0.00,,---,0.00,VWS V14.01,2013-06-16 07:27:00,
2013-06-16 03:32:00,53.1,46.4,29.94,WNW,290,1.0,1.0,78,0.00,,---,0.00,VWS V14.01,2013-06-16 07:32:00,
2013-06-16 03:37:00,53.4,46.4,29.93,WNW,290,1.0,1.0,77,0.00,,---,0.00,VWS V14.01,2013-06-16 07:37:00,
2013-06-16 03:42:00,53.7,46.7,29.93,WNW,291,1.0,2.0,77,0.00,,---,0.00,VWS V14.01,2013-06-16 07:42:00,
2013-06-16 03:48:00,53.5,46.5,29.93,WNW,291,0.0,1.0,77,0.00,,---,0.00,VWS V14.01,2013-06-16 07:48:00,
2013-06-16 03:53:00,53.3,46.6,29.93,WNW,291,1.0,1.0,78,0.00,,---,0.00,VWS V14.01,2013-06-16 07:53:00,
2013-06-16 03:58:00,53.3,46.6,29.93,WNW,291,0.0,1.0,78,0.00,,---,0.00,VWS V14.01,2013-06-16 07:58:00,
2013-06-16 04:03:00,53.1,46.8,29.93,WNW,297,1.0,1.0,79,0.00,,---,0.00,VWS V14.01,2013-06-16 08:03:00,
2013-06-16 04:08:00,53.2,46.5,29.93,West,273,0.0,1.0,78,0.00,,---,0.00,VWS V14.01,2013-06-16 08:08:00,
2013-06-16 04:13:00,53.0,46.7,29.93,West,272,0.0,0.0,79,0.00,,---,0.00,VWS V14.01,2013-06-16 08:13:00,
2013-06-16 04:18:00,52.7,46.7,29.93,West,273,0.0,0.0,80,0.00,,---,0.00,VWS V14.01,2013-06-16 08:18:00,
2013-06-16 04:23:00,52.6,46.9,29.93,WNW,295,0.0,2.0,81,0.00,,---,0.00,VWS V14.01,2013-06-16 08:23:00,
2013-06-16 04:28:00,52.9,47.2,29.93,WNW,287,1.0,2.0,81,0.00,,---,0.00,VWS V14.01,2013-06-16 08:28:00,
2013-06-16 04:33:00,53.4,47.4,29.93,WNW,288,2.0,2.0,80,0.00,,---,0.00,VWS V14.01,2013-06-16 08:33:00,
2013-06-16 04:38:00,53.9,47.5,29.93,North,355,2.0,3.0,79,0.00,,---,0.00,VWS V14.01,2013-06-16 08:38:00,
2013-06-16 04:43:00,54.5,47.8,29.93,West,278,2.0,4.0,78,0.00,,---,0.00,VWS V14.01,2013-06-16 08:43:00,
2013-06-16 04:48:00,55.2,48.1,29.93,WNW,290,2.0,4.0,77,0.00,,---,0.00,VWS V14.01,2013-06-16 08:48:00,
2013-06-16 04:53:00,55.8,48.4,29.93,WNW,291,0.0,4.0,76,0.00,,---,0.00,VWS V14.01,2013-06-16 08:53:00,
2013-06-16 04:58:00,55.8,48.4,29.93,WNW,291,0.0,1.0,76,0.00,,---,0.00,VWS V14.01,2013-06-16 08:58:00,
2013-06-16 05:03:00,56.0,48.5,29.93,WNW,295,1.0,2.0,76,0.00,,---,0.00,VWS V14.01,2013-06-16 09:03:00,
2013-06-16 05:08:00,55.6,48.5,29.93,WNW,285,1.0,4.0,77,0.00,,---,0.00,VWS V14.01,2013-06-16 09:08:00,
2013-06-16 05:13:00,55.8,48.7,29.92,NW,324,2.0,3.0,77,0.00,,---,0.00,VWS V14.01,2013-06-16 09:13:00,
2013-06-16 05:18:00,55.9,48.5,29.92,WNW,287,1.0,2.0,76,0.00,,---,0.00,VWS V14.01,2013-06-16 09:18:00,
2013-06-16 05:23:00,55.9,48.8,29.92,WNW,295,1.0,3.0,77,0.00,,---,0.00,VWS V14.01,2013-06-16 09:23:00,
2013-06-16 05:28:00,56.0,48.5,29.93,WNW,294,1.0,3.0,76,0.00,,---,0.00,VWS V14.01,2013-06-16 09:28:00,
2013-06-16 05:33:00,56.4,48.6,29.93,West,263,0.0,2.0,75,0.00,,---,0.00,VWS V14.01,2013-06-16 09:33:00,
2013-06-16 05:39:00,56.8,48.6,29.92,NW,316,1.0,2.0,74,0.00,,---,0.00,VWS V14.01,2013-06-16 09:39:00,
2013-06-16 05:44:00,57.0,48.8,29.92,WNW,285,0.0,2.0,74,0.00,,---,0.00,VWS V14.01,2013-06-16 09:44:00,
2013-06-16 05:49:00,57.0,48.8,29.92,WNW,294,0.0,2.0,74,0.00,,---,0.00,VWS V14.01,2013-06-16 09:49:00,
2013-06-16 05:54:00,57.1,48.9,29.92,WNW,294,0.0,2.0,74,0.00,,---,0.00,VWS V14.01,2013-06-16 09:54:00,
2013-06-16 05:59:00,57.2,48.6,29.92,WSW,248,0.0,3.0,73,0.00,,---,0.00,VWS V14.01,2013-06-16 09:59:00,
2013-06-16 06:04:00,57.1,48.9,29.92,WSW,249,0.0,1.0,74,0.00,,---,0.00,VWS V14.01,2013-06-16 10:04:00,
2013-06-16 06:09:00,57.0,48.8,29.92,NW,319,3.0,5.0,74,0.00,,---,0.00,VWS V14.01,2013-06-16 10:09:00,
2013-06-16 06:14:00,56.9,48.7,29.92,West,278,1.0,3.0,74,0.00,,---,0.00,VWS V14.01,2013-06-16 10:14:00,
2013-06-16 06:19:00,57.1,48.9,29.92,West,278,2.0,3.0,74,0.00,,---,0.00,VWS V14.01,2013-06-16 10:19:00,
2013-06-16 06:24:00,57.3,49.1,29.92,WNW,284,1.0,3.0,74,0.00,,---,0.00,VWS V14.01,2013-06-16 10:24:00,
2013-06-16 06:29:00,57.5,49.3,29.92,West,272,0.0,3.0,74,0.00,,---,0.00,VWS V14.01,2013-06-16 10:29:00,
2013-06-16 06:34:00,58.2,49.6,29.92,WNW,291,1.0,1.0,73,0.00,,---,0.00,VWS V14.01,2013-06-16 10:34:00,
2013-06-16 06:39:00,59.2,49.8,29.92,WNW,293,0.0,1.0,71,0.00,,---,0.00,VWS V14.01,2013-06-16 10:39:00,
2013-06-16 06:44:00,60.0,50.2,29.92,SW,218,2.0,3.0,70,0.00,,---,0.00,VWS V14.01,2013-06-16 10:44:00,
2013-06-16 06:49:00,60.5,50.7,29.92,SW,228,2.0,3.0,70,0.00,,---,0.00,VWS V14.01,2013-06-16 10:49:00,
2013-06-16 06:54:00,60.6,50.8,29.92,WSW,243,1.0,3.0,70,0.00,,---,0.00,VWS V14.01,2013-06-16 10:54:00,
2013-06-16 06:59:00,60.4,50.6,29.92,SW,224,2.0,2.0,70,0.00,,---,0.00,VWS V14.01,2013-06-16 10:59:00,
2013-06-16 07:04:00,60.3,50.9,29.92,WSW,253,2.0,3.0,71,0.00,,---,0.00,VWS V14.01,2013-06-16 11:04:00,
2013-06-16 07:09:00,60.4,51.0,29.92,SSW,208,1.0,4.0,71,0.00,,---,0.00,VWS V14.01,2013-06-16 11:09:00,
2013-06-16 07:14:00,60.9,51.8,29.92,West,267,1.0,1.0,72,0.00,,---,0.00,VWS V14.01,2013-06-16 11:14:00,
2013-06-16 07:19:00,61.1,52.0,29.92,SW,222,0.0,2.0,72,0.00,,---,0.00,VWS V14.01,2013-06-16 11:19:00,
2013-06-16 07:24:00,61.4,51.9,29.92,SSW,198,0.0,2.0,71,0.00,,---,0.00,VWS V14.01,2013-06-16 11:24:00,
2013-06-16 07:29:00,61.7,52.6,29.92,SSE,158,1.0,2.0,72,0.00,,---,0.00,VWS V14.01,2013-06-16 11:29:00,
2013-06-16 07:34:00,61.9,52.4,29.91,SE,136,0.0,1.0,71,0.00,,---,0.00,VWS V14.01,2013-06-16 11:34:00,
2013-06-16 07:39:00,63.1,53.6,29.91,SE,131,0.0,1.0,71,0.00,,---,0.00,VWS V14.01,2013-06-16 11:39:00,
2013-06-16 07:44:00,64.0,54.8,29.91,SW,221,1.0,2.0,72,0.00,,---,0.00,VWS V14.01,2013-06-16 11:44:00,
2013-06-16 07:49:00,64.7,53.5,29.91,West,281,1.0,4.0,67,0.00,,---,0.00,VWS V14.01,2013-06-16 11:49:00,
2013-06-16 07:54:00,64.8,53.6,29.91,WNW,284,1.0,4.0,67,0.00,,---,0.00,VWS V14.01,2013-06-16 11:54:00,
2013-06-16 07:59:00,64.8,54.0,29.91,SW,221,0.0,2.0,68,0.00,,---,0.00,VWS V14.01,2013-06-16 11:59:00,
2013-06-16 08:04:00,64.9,54.1,29.91,SSW,208,0.0,2.0,68,0.00,,---,0.00,VWS V14.01,2013-06-16 12:04:00,
2013-06-16 08:09:00,64.8,54.4,29.91,WSW,246,4.0,4.0,69,0.00,,---,0.00,VWS V14.01,2013-06-16 12:09:00,
2013-06-16 08:14:00,64.7,54.3,29.91,West,281,3.0,4.0,69,0.00,,---,0.00,VWS V14.01,2013-06-16 12:14:00,
2013-06-16 08:19:00,64.8,54.4,29.90,SW,226,4.0,5.0,69,0.00,,---,0.00,VWS V14.01,2013-06-16 12:19:00,
2013-06-16 08:24:00,65.0,54.2,29.90,WSW,252,4.0,7.0,68,0.00,,---,0.00,VWS V14.01,2013-06-16 12:24:00,
2013-06-16 08:29:00,64.9,54.1,29.90,West,269,3.0,8.0,68,0.00,,---,0.00,VWS V14.01,2013-06-16 12:29:00,
2013-06-16 08:34:00,65.0,54.2,29.90,West,278,5.0,8.0,68,0.00,,---,0.00,VWS V14.01,2013-06-16 12:34:00,
2013-06-16 08:39:00,65.0,53.8,29.90,WSW,253,2.0,12.0,67,0.00,,---,0.00,VWS V14.01,2013-06-16 12:39:00,
2013-06-16 08:44:00,65.0,53.8,29.90,WNW,285,1.0,6.0,67,0.00,,---,0.00,VWS V14.01,2013-06-16 12:44:00,
2013-06-16 08:49:00,64.9,53.3,29.89,SW,222,6.0,7.0,66,0.00,,---,0.00,VWS V14.01,2013-06-16 12:49:00,
2013-06-16 08:54:00,64.9,54.5,29.89,SSW,208,1.0,6.0,69,0.00,,---,0.00,VWS V14.01,2013-06-16 12:54:00,
2013-06-16 08:59:00,64.8,53.6,29.89,WSW,240,6.0,8.0,67,0.00,,---,0.00,VWS V14.01,2013-06-16 12:59:00,
2013-06-16 09:04:00,65.0,54.6,29.89,WSW,256,5.0,8.0,69,0.00,,---,0.00,VWS V14.01,2013-06-16 13:04:00,
2013-06-16 09:09:00,65.4,54.2,29.89,SW,218,8.0,12.0,67,0.00,,---,0.00,VWS V14.01,2013-06-16 13:09:00,
2013-06-16 09:14:00,65.7,53.6,29.88,West,269,7.0,18.0,65,0.00,,---,0.00,VWS V14.01,2013-06-16 13:14:00,
2013-06-16 09:19:00,65.6,54.0,29.88,SW,235,9.0,13.0,66,0.00,,---,0.00,VWS V14.01,2013-06-16 13:19:00,
2013-06-16 09:24:00,65.5,53.4,29.88,South,186,3.0,11.0,65,0.00,,---,0.00,VWS V14.01,2013-06-16 13:24:00,
2013-06-16 09:29:00,65.5,53.4,29.88,SW,235,6.0,11.0,65,0.00,,---,0.00,VWS V14.01,2013-06-16 13:29:00,
2013-06-16 09:34:00,65.4,53.3,29.87,SSW,197,2.0,13.0,65,0.00,,---,0.00,VWS V14.01,2013-06-16 13:34:00,
2013-06-16 09:39:00,65.3,53.2,29.87,SW,236,4.0,11.0,65,0.00,,---,0.00,VWS V14.01,2013-06-16 13:39:00,
2013-06-16 09:44:00,65.2,53.2,29.87,SW,226,1.0,11.0,65,0.00,,---,0.00,VWS V14.01,2013-06-16 13:44:00,
2013-06-16 09:49:00,65.4,53.8,29.87,WSW,238,2.0,10.0,66,0.00,,---,0.00,VWS V14.01,2013-06-16 13:49:00,
2013-06-16 09:54:00,65.2,53.2,29.87,SW,224,6.0,14.0,65,0.00,,---,0.00,VWS V14.01,2013-06-16 13:54:00,
2013-06-16 09:59:00,65.1,53.1,29.86,WSW,242,6.0,13.0,65,0.00,,---,0.00,VWS V14.01,2013-06-16 13:59:00,
2013-06-16 10:04:00,65.0,53.4,29.86,SSW,208,4.0,11.0,66,0.00,,---,0.00,VWS V14.01,2013-06-16 14:04:00,
2013-06-16 10:09:00,65.1,53.5,29.86,WSW,245,4.0,11.0,66,0.00,,---,0.00,VWS V14.01,2013-06-16 14:09:00,
2013-06-16 10:14:00,65.1,53.5,29.86,WNW,293,6.0,12.0,66,0.00,,---,0.00,VWS V14.01,2013-06-16 14:14:00,
2013-06-16 10:19:00,65.2,54.0,29.86,WSW,243,2.0,11.0,67,0.00,,---,0.00,VWS V14.01,2013-06-16 14:19:00,
2013-06-16 10:24:00,65.2,54.0,29.85,SW,228,6.0,9.0,67,0.00,,---,0.00,VWS V14.01,2013-06-16 14:24:00,
2013-06-16 10:29:00,65.3,54.1,29.85,WSW,238,1.0,8.0,67,0.00,,---,0.00,VWS V14.01,2013-06-16 14:29:00,
2013-06-16 10:34:00,65.4,53.8,29.85,WSW,249,1.0,8.0,66,0.00,,---,0.00,VWS V14.01,2013-06-16 14:34:00,
2013-06-16 10:39:00,65.5,53.4,29.85,WSW,238,5.0,10.0,65,0.00,,---,0.00,VWS V14.01,2013-06-16 14:39:00,
2013-06-16 10:44:00,65.7,54.0,29.85,SW,228,5.0,7.0,66,0.00,,---,0.00,VWS V14.01,2013-06-16 14:44:00,
2013-06-16 10:49:00,65.8,55.0,29.84,SSW,208,3.0,7.0,68,0.00,,---,0.00,VWS V14.01,2013-06-16 14:49:00,
2013-06-16 10:54:00,66.0,54.7,29.84,SSE,158,6.0,10.0,67,0.00,,---,0.00,VWS V14.01,2013-06-16 14:54:00,
2013-06-16 10:59:00,66.0,55.2,29.84,SW,214,6.0,10.0,68,0.00,,---,0.00,VWS V14.01,2013-06-16 14:59:00,
2013-06-16 11:04:00,65.9,54.2,29.83,SSW,195,6.0,9.0,66,0.00,,---,0.00,VWS V14.01,2013-06-16 15:04:00,
2013-06-16 11:09:00,65.9,54.2,29.83,SW,235,4.0,11.0,66,0.00,,---,0.00,VWS V14.01,2013-06-16 15:09:00,
2013-06-16 11:15:00,65.8,54.5,29.83,SSW,208,3.0,9.0,67,0.00,,---,0.00,VWS V14.01,2013-06-16 15:15:00,
2013-06-16 11:20:00,65.9,55.0,29.83,SW,225,6.0,8.0,68,0.00,,---,0.00,VWS V14.01,2013-06-16 15:20:00,
2013-06-16 11:26:00,66.0,54.7,29.83,SSE,166,6.0,8.0,67,0.00,,---,0.00,VWS V14.01,2013-06-16 15:26:00,
2013-06-16 11:31:00,66.0,53.9,29.82,SW,218,3.0,9.0,65,0.00,,---,0.00,VWS V14.01,2013-06-16 15:31:00,
2013-06-16 11:36:00,66.1,55.2,29.82,South,188,5.0,11.0,68,0.00,,---,0.00,VWS V14.01,2013-06-16 15:36:00,
2013-06-16 11:41:00,66.1,54.8,29.82,South,170,5.0,12.0,67,0.00,,---,0.00,VWS V14.01,2013-06-16 15:41:00,
2013-06-16 11:46:00,66.1,54.8,29.82,South,186,6.0,9.0,67,0.00,,---,0.00,VWS V14.01,2013-06-16 15:46:00,
2013-06-16 11:51:00,65.9,54.2,29.82,SW,226,5.0,10.0,66,0.00,,---,0.00,VWS V14.01,2013-06-16 15:51:00,
2013-06-16 11:56:00,65.8,55.0,29.81,SW,216,6.0,8.0,68,0.00,,---,0.00,VWS V14.01,2013-06-16 15:56:00,
2013-06-16 12:01:00,65.6,54.4,29.81,SSE,153,8.0,8.0,67,0.00,,---,0.00,VWS V14.01,2013-06-16 16:01:00,
2013-06-16 12:06:00,65.4,54.2,29.81,SW,219,7.0,8.0,67,0.00,,---,0.00,VWS V14.01,2013-06-16 16:06:00,
2013-06-16 12:11:00,65.3,54.9,29.81,SSE,155,3.0,8.0,69,0.00,,---,0.00,VWS V14.01,2013-06-16 16:11:00,
2013-06-16 12:16:00,65.2,55.2,29.80,SE,145,4.0,7.0,70,0.00,,---,0.00,VWS V14.01,2013-06-16 16:16:00,
2013-06-16 12:21:00,65.2,56.3,29.80,South,169,6.0,8.0,73,0.00,,---,0.00,VWS V14.01,2013-06-16 16:21:00,
2013-06-16 12:26:00,65.0,55.0,29.80,SSE,168,4.0,8.0,70,0.00,,---,0.00,VWS V14.01,2013-06-16 16:26:00,
2013-06-16 12:31:00,64.9,55.7,29.80,SSE,155,3.0,7.0,72,0.00,,---,0.00,VWS V14.01,2013-06-16 16:31:00,
2013-06-16 12:36:00,64.8,55.6,29.79,SSE,162,6.0,7.0,72,0.00,,---,0.00,VWS V14.01,2013-06-16 16:36:00,
2013-06-16 12:41:00,64.5,55.3,29.79,SE,146,3.0,8.0,72,0.00,,---,0.00,VWS V14.01,2013-06-16 16:41:00,
2013-06-16 12:46:00,64.1,55.3,29.78,SSE,163,7.0,9.0,73,0.00,,---,0.00,VWS V14.01,2013-06-16 16:46:00,
2013-06-16 12:52:00,63.7,55.6,29.78,SSE,150,3.0,8.0,75,0.00,,---,0.00,VWS V14.01,2013-06-16 16:52:00,
2013-06-16 12:57:00,63.4,56.4,29.78,SSE,159,7.0,8.0,78,0.00,,---,0.00,VWS V14.01,2013-06-16 16:57:00,
2013-06-16 13:02:00,63.1,56.5,29.77,SE,131,6.0,9.0,79,0.00,,---,0.00,VWS V14.01,2013-06-16 17:02:00,
2013-06-16 13:07:00,62.8,56.2,29.77,SSE,160,9.0,12.0,79,0.00,,---,0.00,VWS V14.01,2013-06-16 17:07:00,
2013-06-16 13:12:00,62.1,56.2,29.77,SE,139,4.0,12.0,81,0.00,,---,0.00,VWS V14.01,2013-06-16 17:12:00,
2013-06-16 13:17:00,61.8,55.9,29.76,SSE,155,4.0,10.0,81,0.00,,---,0.00,VWS V14.01,2013-06-16 17:17:00,
2013-06-16 13:22:00,61.6,56.4,29.76,SE,139,4.0,10.0,83,0.00,,---,0.00,VWS V14.01,2013-06-16 17:22:00,
2013-06-16 13:27:00,61.5,56.3,29.75,SE,139,6.0,8.0,83,0.00,,---,0.00,VWS V14.01,2013-06-16 17:27:00,
2013-06-16 13:32:00,61.4,56.5,29.75,SE,146,6.0,10.0,84,0.00,,---,0.00,VWS V14.01,2013-06-16 17:32:00,
2013-06-16 13:37:00,61.4,56.5,29.74,SE,146,6.0,10.0,84,0.00,,---,0.00,VWS V14.01,2013-06-16 17:37:00,
2013-06-16 13:42:00,61.4,56.5,29.74,ESE,112,6.0,12.0,84,0.00,,---,0.00,VWS V14.01,2013-06-16 17:42:00,
2013-06-16 13:47:00,61.4,56.9,29.74,SE,141,5.0,11.0,85,0.00,,---,0.00,VWS V14.01,2013-06-16 17:47:00,
2013-06-16 13:52:00,61.3,56.8,29.73,South,191,5.0,11.0,85,0.00,,---,0.00,VWS V14.01,2013-06-16 17:52:00,
2013-06-16 13:57:00,61.4,56.9,29.73,SSW,196,5.0,7.0,85,0.00,,---,0.00,VWS V14.01,2013-06-16 17:57:00,
2013-06-16 14:02:00,61.4,56.9,29.73,SSE,155,7.0,8.0,85,0.00,,---,0.00,VWS V14.01,2013-06-16 18:02:00,
2013-06-16 14:07:00,61.6,57.0,29.72,SE,143,8.0,9.0,85,0.00,,---,0.00,VWS V14.01,2013-06-16 18:07:00,
2013-06-16 14:12:00,61.7,56.8,29.72,SSE,150,6.0,9.0,84,0.00,,---,0.00,VWS V14.01,2013-06-16 18:12:00,
2013-06-16 14:17:00,61.8,56.9,29.72,SSE,160,5.0,10.0,84,0.00,,---,0.00,VWS V14.01,2013-06-16 18:17:00,
2013-06-16 14:22:00,61.8,56.9,29.71,South,181,4.0,10.0,84,0.00,,---,0.00,VWS V14.01,2013-06-16 18:22:00,
2013-06-16 14:27:00,62.1,57.2,29.71,SE,129,6.0,10.0,84,0.00,,---,0.00,VWS V14.01,2013-06-16 18:27:00,
2013-06-16 14:32:00,62.5,57.3,29.71,SSE,162,8.0,12.0,83,0.00,,---,0.00,VWS V14.01,2013-06-16 18:32:00,
2013-06-16 14:37:00,62.9,57.7,29.70,South,170,3.0,13.0,83,0.00,,---,0.00,VWS V14.01,2013-06-16 18:37:00,
2013-06-16 14:42:00,63.4,57.8,29.70,SE,145,7.0,13.0,82,0.00,,---,0.00,VWS V14.01,2013-06-16 18:42:00,
2013-06-16 14:47:00,63.5,57.6,29.71,South,184,5.0,10.0,81,0.00,,---,0.00,VWS V14.01,2013-06-16 18:47:00,
2013-06-16 14:52:00,63.4,57.5,29.71,SSW,195,7.0,12.0,81,0.00,,---,0.00,VWS V14.01,2013-06-16 18:52:00,
2013-06-16 14:57:00,63.2,57.6,29.71,South,174,5.0,12.0,82,0.00,,---,0.00,VWS V14.01,2013-06-16 18:57:00,
2013-06-16 15:02:00,63.1,57.9,29.71,South,186,3.0,8.0,83,0.00,,---,0.00,VWS V14.01,2013-06-16 19:02:00,
2013-06-16 15:08:00,63.1,57.9,29.71,SSW,204,5.0,10.0,83,0.00,,---,0.00,VWS V14.01,2013-06-16 19:08:00,
2013-06-16 15:13:00,63.3,58.4,29.71,SSW,195,3.0,10.0,84,0.00,,---,0.00,VWS V14.01,2013-06-16 19:13:00,
2013-06-16 15:18:00,63.4,58.5,29.70,SSE,160,5.0,8.0,84,0.00,,---,0.00,VWS V14.01,2013-06-16 19:18:00,
2013-06-16 15:23:00,63.5,58.2,29.70,South,176,6.0,9.0,83,0.00,,---,0.00,VWS V14.01,2013-06-16 19:23:00,
2013-06-16 15:28:00,63.7,58.5,29.70,South,179,6.0,8.0,83,0.00,,---,0.00,VWS V14.01,2013-06-16 19:28:00,
2013-06-16 15:33:00,63.9,58.6,29.70,SSE,166,4.0,12.0,83,0.00,,---,0.00,VWS V14.01,2013-06-16 19:33:00,
2013-06-16 15:38:00,64.2,58.3,29.70,SSW,208,4.0,11.0,81,0.00,,---,0.00,VWS V14.01,2013-06-16 19:38:00,
2013-06-16 15:44:00,64.4,58.8,29.70,SSW,198,4.0,11.0,82,0.00,,---,0.00,VWS V14.01,2013-06-16 19:44:00,
2013-06-16 15:49:00,64.6,58.3,29.69,SW,214,5.0,8.0,80,0.00,,---,0.00,VWS V14.01,2013-06-16 19:49:00,
2013-06-16 15:54:00,65.1,58.4,29.69,SSW,201,2.0,14.0,79,0.00,,---,0.00,VWS V14.01,2013-06-16 19:54:00,
2013-06-16 15:59:00,65.6,58.2,29.70,SSW,205,6.0,14.0,77,0.00,,---,0.00,VWS V14.01,2013-06-16 19:59:00,
2013-06-16 16:04:00,66.1,58.3,29.69,WSW,239,7.0,11.0,76,0.00,,---,0.00,VWS V14.01,2013-06-16 20:04:00,
2013-06-16 16:09:00,66.7,58.5,29.69,WSW,256,3.0,10.0,75,0.00,,---,0.00,VWS V14.01,2013-06-16 20:09:00,
2013-06-16 16:14:00,67.4,58.5,29.69,SSW,208,9.0,15.0,73,0.00,,---,0.00,VWS V14.01,2013-06-16 20:14:00,
2013-06-16 16:19:00,67.7,58.0,29.69,SW,219,4.0,14.0,71,0.00,,---,0.00,VWS V14.01,2013-06-16 20:19:00,
2013-06-16 16:24:00,67.7,58.0,29.70,WNW,287,8.0,14.0,71,0.00,,---,0.00,VWS V14.01,2013-06-16 20:24:00,
2013-06-16 16:29:00,67.6,58.3,29.70,West,271,6.0,13.0,72,0.00,,---,0.00,VWS V14.01,2013-06-16 20:29:00,
2013-06-16 16:34:00,67.4,58.1,29.69,SW,235,2.0,13.0,72,0.00,,---,0.00,VWS V14.01,2013-06-16 20:34:00,
2013-06-16 16:39:00,67.4,58.5,29.70,West,278,8.0,15.0,73,0.00,,---,0.00,VWS V14.01,2013-06-16 20:39:00,
2013-06-16 16:44:00,67.4,58.1,29.69,West,278,9.0,10.0,72,0.00,,---,0.00,VWS V14.01,2013-06-16 20:44:00,
2013-06-16 16:49:00,67.4,58.5,29.70,WSW,250,7.0,11.0,73,0.00,,---,0.00,VWS V14.01,2013-06-16 20:49:00,
2013-06-16 16:54:00,67.4,58.5,29.70,WSW,256,8.0,13.0,73,0.00,,---,0.00,VWS V14.01,2013-06-16 20:54:00,
2013-06-16 16:59:00,67.5,58.5,29.70,West,263,7.0,17.0,73,0.00,,---,0.00,VWS V14.01,2013-06-16 20:59:00,
2013-06-16 17:04:00,67.6,58.7,29.70,WNW,285,3.0,15.0,73,0.00,,---,0.00,VWS V14.01,2013-06-16 21:04:00,
2013-06-16 17:09:00,67.5,58.5,29.70,NW,305,6.0,15.0,73,0.00,,---,0.00,VWS V14.01,2013-06-16 21:09:00,
2013-06-16 17:14:00,67.4,58.8,29.70,West,262,9.0,11.0,74,0.00,,---,0.00,VWS V14.01,2013-06-16 21:14:00,
2013-06-16 17:19:00,67.3,58.7,29.70,West,264,10.0,18.0,74,0.00,,---,0.00,VWS V14.01,2013-06-16 21:19:00,
2013-06-16 17:24:00,67.4,58.8,29.70,West,281,8.0,18.0,74,0.00,,---,0.00,VWS V14.01,2013-06-16 21:24:00,
2013-06-16 17:29:00,67.4,59.2,29.70,West,271,8.0,19.0,75,0.00,,---,0.00,VWS V14.01,2013-06-16 21:29:00,
2013-06-16 17:34:00,67.1,59.3,29.71,West,278,7.0,21.0,76,0.00,,---,0.00,VWS V14.01,2013-06-16 21:34:00,
2013-06-16 17:39:00,66.9,59.5,29.71,West,276,8.0,14.0,77,0.00,,---,0.00,VWS V14.01,2013-06-16 21:39:00,
2013-06-16 17:44:00,66.7,59.6,29.71,WNW,288,11.0,20.0,78,0.00,,---,0.00,VWS V14.01,2013-06-16 21:44:00,
2013-06-16 17:49:00,66.6,59.9,29.71,WNW,295,10.0,19.0,79,0.00,,---,0.00,VWS V14.01,2013-06-16 21:49:00,
2013-06-16 17:55:00,66.4,60.0,29.70,WNW,291,16.0,18.0,80,0.00,,---,0.00,VWS V14.01,2013-06-16 21:55:00,
2013-06-16 18:00:00,66.4,60.0,29.70,WNW,295,14.0,21.0,80,0.00,,---,0.00,VWS V14.01,2013-06-16 22:00:00,
2013-06-16 18:05:00,66.4,60.0,29.71,West,281,14.0,16.0,80,0.00,,---,0.00,VWS V14.01,2013-06-16 22:05:00,
2013-06-16 18:10:00,66.5,60.5,29.71,West,269,7.0,17.0,81,0.00,,---,0.00,VWS V14.01,2013-06-16 22:10:00,
2013-06-16 18:15:00,66.5,60.5,29.70,NW,312,6.0,12.0,81,0.00,,---,0.00,VWS V14.01,2013-06-16 22:15:00,
2013-06-16 18:20:00,66.6,60.6,29.71,WNW,288,16.0,20.0,81,0.00,,---,0.00,VWS V14.01,2013-06-16 22:20:00,
2013-06-16 18:25:00,66.5,60.5,29.71,West,274,10.0,21.0,81,0.00,,---,0.00,VWS V14.01,2013-06-16 22:25:00,
2013-06-16 18:30:00,66.4,60.7,29.71,West,278,14.0,19.0,82,0.00,,---,0.00,VWS V14.01,2013-06-16 22:30:00,
2013-06-16 18:35:00,66.2,60.5,29.71,NW,319,15.0,16.0,82,0.00,,---,0.00,VWS V14.01,2013-06-16 22:35:00,
2013-06-16 18:40:00,65.9,60.6,29.72,WNW,283,8.0,16.0,83,0.00,,---,0.00,VWS V14.01,2013-06-16 22:40:00,
2013-06-16 18:45:00,65.7,60.7,29.72,WNW,288,9.0,18.0,84,0.00,,---,0.00,VWS V14.01,2013-06-16 22:45:00,
2013-06-16 18:50:00,65.6,60.6,29.72,WNW,288,13.0,15.0,84,0.00,,---,0.00,VWS V14.01,2013-06-16 22:50:00,
2013-06-16 18:56:00,65.6,60.6,29.72,WNW,292,11.0,16.0,84,0.00,,---,0.00,VWS V14.01,2013-06-16 22:56:00,
2013-06-16 19:01:00,65.5,60.5,29.72,West,271,8.0,18.0,84,0.00,,---,0.00,VWS V14.01,2013-06-16 23:01:00,
2013-06-16 19:06:00,65.5,60.5,29.72,West,271,9.0,16.0,84,0.00,,---,0.00,VWS V14.01,2013-06-16 23:06:00,
2013-06-16 19:12:00,65.5,60.9,29.73,West,276,11.0,17.0,85,0.00,,---,0.00,VWS V14.01,2013-06-16 23:12:00,
2013-06-16 19:17:00,65.5,60.9,29.73,NW,305,9.0,20.0,85,0.00,,---,0.00,VWS V14.01,2013-06-16 23:17:00,
2013-06-16 19:22:00,65.4,60.8,29.73,West,281,13.0,17.0,85,0.00,,---,0.00,VWS V14.01,2013-06-16 23:22:00,
2013-06-16 19:27:00,65.4,60.8,29.73,WNW,291,12.0,17.0,85,0.00,,---,0.00,VWS V14.01,2013-06-16 23:27:00,
2013-06-16 19:32:00,65.4,60.8,29.74,WNW,300,6.0,16.0,85,0.00,,---,0.00,VWS V14.01,2013-06-16 23:32:00,
2013-06-16 19:37:00,65.3,60.7,29.74,WNW,298,6.0,16.0,85,0.00,,---,0.00,VWS V14.01,2013-06-16 23:37:00,
2013-06-16 19:41:00,65.3,60.7,29.74,WNW,284,7.0,14.0,85,0.00,,---,0.00,VWS V14.01,2013-06-16 23:41:00,
2013-06-16 19:47:00,65.1,60.5,29.74,NW,311,9.0,18.0,85,0.00,,---,0.00,VWS V14.01,2013-06-16 23:47:00,
2013-06-16 19:52:00,65.0,60.4,29.75,NW,312,7.0,19.0,85,0.00,,---,0.00,VWS V14.01,2013-06-16 23:52:00,
2013-06-16 19:57:00,64.8,60.5,29.75,West,274,7.0,12.0,86,0.00,,---,0.00,VWS V14.01,2013-06-16 23:57:00,
2013-06-16 20:02:00,64.7,60.4,29.75,WNW,300,4.0,18.0,86,0.00,,---,0.00,VWS V14.01,2013-06-17 00:02:00,
2013-06-16 20:07:00,64.6,60.0,29.75,WNW,290,10.0,15.0,85,0.00,,---,0.00,VWS V14.01,2013-06-17 00:07:00,
2013-06-16 20:12:00,64.4,59.8,29.75,WNW,285,9.0,20.0,85,0.00,,---,0.00,VWS V14.01,2013-06-17 00:12:00,
2013-06-16 20:17:00,64.3,59.7,29.75,WNW,285,10.0,15.0,85,0.00,,---,0.00,VWS V14.01,2013-06-17 00:17:00,
2013-06-16 20:23:00,64.1,59.8,29.76,NW,308,7.0,15.0,86,0.00,,---,0.00,VWS V14.01,2013-06-17 00:23:00,
2013-06-16 20:28:00,63.9,59.6,29.76,NNW,328,8.0,14.0,86,0.00,,---,0.00,VWS V14.01,2013-06-17 00:28:00,
2013-06-16 20:33:00,63.8,59.9,29.76,WNW,284,3.0,13.0,87,0.00,,---,0.00,VWS V14.01,2013-06-17 00:33:00,
2013-06-16 20:38:00,63.5,59.9,29.76,West,267,5.0,8.0,88,0.00,,---,0.00,VWS V14.01,2013-06-17 00:38:00,
2013-06-16 20:43:00,63.2,59.6,29.77,West,281,6.0,9.0,88,0.00,,---,0.00,VWS V14.01,2013-06-17 00:43:00,
2013-06-16 20:48:00,63.0,59.7,29.77,NW,326,4.0,7.0,89,0.00,,---,0.00,VWS V14.01,2013-06-17 00:48:00,
2013-06-16 20:53:00,62.6,59.3,29.77,WNW,300,2.0,8.0,89,0.00,,---,0.00,VWS V14.01,2013-06-17 00:53:00,
2013-06-16 20:58:00,62.5,59.2,29.78,WNW,285,2.0,8.0,89,0.00,,---,0.00,VWS V14.01,2013-06-17 00:58:00,
2013-06-16 21:03:00,62.4,59.4,29.78,West,270,4.0,6.0,90,0.00,,---,0.00,VWS V14.01,2013-06-17 01:03:00,
2013-06-16 21:08:00,62.3,59.3,29.78,North,5,1.0,4.0,90,0.00,,---,0.00,VWS V14.01,2013-06-17 01:08:00,
2013-06-16 21:13:00,62.2,59.2,29.79,NW,320,2.0,10.0,90,0.00,,---,0.00,VWS V14.01,2013-06-17 01:13:00,
2013-06-16 21:18:00,61.8,58.8,29.79,WNW,293,4.0,4.0,90,0.00,,---,0.00,VWS V14.01,2013-06-17 01:18:00,
2013-06-16 21:23:00,61.7,59.0,29.79,WNW,297,3.0,7.0,91,0.00,,---,0.00,VWS V14.01,2013-06-17 01:23:00,
2013-06-16 21:28:00,61.8,58.8,29.80,West,281,4.0,10.0,90,0.00,,---,0.00,VWS V14.01,2013-06-17 01:28:00,
2013-06-16 21:33:00,61.7,58.7,29.80,WNW,290,3.0,10.0,90,0.00,,---,0.00,VWS V14.01,2013-06-17 01:33:00,
2013-06-16 21:38:00,61.6,58.6,29.80,West,272,8.0,10.0,90,0.00,,---,0.00,VWS V14.01,2013-06-17 01:38:00,
2013-06-16 21:43:00,61.6,58.6,29.81,NW,304,4.0,9.0,90,0.00,,---,0.00,VWS V14.01,2013-06-17 01:43:00,
2013-06-16 21:48:00,61.4,58.5,29.81,NW,308,3.0,5.0,90,0.00,,---,0.00,VWS V14.01,2013-06-17 01:48:00,
2013-06-16 21:53:00,61.3,58.3,29.81,WNW,302,5.0,7.0,90,0.00,,---,0.00,VWS V14.01,2013-06-17 01:53:00,
2013-06-16 21:58:00,61.4,58.5,29.81,WNW,290,4.0,6.0,90,0.00,,---,0.00,VWS V14.01,2013-06-17 01:58:00,
2013-06-16 22:03:00,61.4,58.1,29.82,WNW,297,4.0,6.0,89,0.00,,---,0.00,VWS V14.01,2013-06-17 02:03:00,
2013-06-16 22:08:00,61.4,58.1,29.82,WNW,288,6.0,8.0,89,0.00,,---,0.00,VWS V14.01,2013-06-17 02:08:00,
2013-06-16 22:13:00,61.3,58.0,29.82,NW,307,4.0,6.0,89,0.00,,---,0.00,VWS V14.01,2013-06-17 02:13:00,
2013-06-16 22:18:00,61.2,57.9,29.82,WNW,288,2.0,4.0,89,0.00,,---,0.00,VWS V14.01,2013-06-17 02:18:00,
2013-06-16 22:23:00,60.8,57.8,29.82,WNW,300,2.0,3.0,90,0.00,,---,0.00,VWS V14.01,2013-06-17 02:23:00,
2013-06-16 22:28:00,60.5,57.6,29.82,NW,312,1.0,4.0,90,0.00,,---,0.00,VWS V14.01,2013-06-17 02:28:00,
2013-06-16 22:33:00,60.3,57.4,29.82,WNW,295,1.0,4.0,90,0.00,,---,0.00,VWS V14.01,2013-06-17 02:33:00,
2013-06-16 22:38:00,60.1,57.5,29.82,WNW,288,1.0,3.0,91,0.00,,---,0.00,VWS V14.01,2013-06-17 02:38:00,
2013-06-16 22:43:00,59.9,57.3,29.82,West,280,2.0,5.0,91,0.00,,---,0.00,VWS V14.01,2013-06-17 02:43:00,
2013-06-16 22:48:00,60.0,57.4,29.82,WNW,285,3.0,3.0,91,0.00,,---,0.00,VWS V14.01,2013-06-17 02:48:00,
2013-06-16 22:53:00,60.0,57.7,29.83,WNW,290,2.0,4.0,92,0.00,,---,0.00,VWS V14.01,2013-06-17 02:53:00,
2013-06-16 22:58:00,59.8,57.5,29.82,NW,314,1.0,2.0,92,0.00,,---,0.00,VWS V14.01,2013-06-17 02:58:00,
2013-06-16 23:03:00,59.5,57.2,29.83,WNW,291,1.0,2.0,92,0.00,,---,0.00,VWS V14.01,2013-06-17 03:03:00,
2013-06-16 23:08:00,59.0,56.7,29.83,West,280,1.0,2.0,92,0.00,,---,0.00,VWS V14.01,2013-06-17 03:08:00,
2013-06-16 23:13:00,58.5,56.5,29.83,West,280,0.0,1.0,93,0.00,,---,0.00,VWS V14.01,2013-06-17 03:13:00,
2013-06-16 23:18:00,58.3,56.6,29.83,West,280,0.0,1.0,94,0.00,,---,0.00,VWS V14.01,2013-06-17 03:18:00,
2013-06-16 23:23:00,58.1,56.4,29.83,West,280,0.0,0.0,94,0.00,,---,0.00,VWS V14.01,2013-06-17 03:23:00,
2013-06-16 23:28:00,57.7,55.7,29.83,West,280,0.0,0.0,93,0.00,,---,0.00,VWS V14.01,2013-06-17 03:28:00,
2013-06-16 23:33:00,57.3,55.6,29.82,West,280,0.0,0.0,94,0.00,,---,0.00,VWS V14.01,2013-06-17 03:33:00,
2013-06-16 23:38:00,56.9,55.2,29.82,West,280,0.0,0.0,94,0.00,,---,0.00,VWS V14.01,2013-06-17 03:38:00,
2013-06-16 23:43:00,56.5,54.8,29.82,West,280,0.0,0.0,94,0.00,,---,0.00,VWS V14.01,2013-06-17 03:43:00,
2013-06-16 23:48:00,56.5,55.1,29.82,West,280,0.0,0.0,95,0.00,,---,0.00,VWS V14.01,2013-06-17 03:48:00,
2013-06-16 23:53:00,56.6,55.5,29.82,West,280,0.0,1.0,96,0.00,,---,0.00,VWS V14.01,2013-06-17 03:53:00,
2013-06-16 23:58:00,56.8,55.7,29.82,WSW,249,1.0,1.0,96,0.00,,---,0.00,VWS V14.01,2013-06-17 03:58:00,